Island Lookout — WDF6311 — position and weather

sailwx.info

Track history (hours):
 
Tides and Currents Weather Stations Pressure Air Temp Water Temp Dewpoint Dewpoint Depression Visibility Wind Speed Wind Dir Waves Ship Positions

Island Lookout

Owner: Stevens Towing Company Inc., Yonges Island, SC. More information available from US FCC via Universal Licensing System and Coast Guard Vessel Documentation Center.

Last reported at 2015-Mar-06 23:25 UTC. Time now 2015-Mar-07 00:14 UTC.
Position N 38°60' W 076°23'.

Length 22 m; draft 2.9 m.

Type: Towing. MMSI: 367472930.

Date/timePositionNaut miles runAvg speedWind from/ knotsBaromVisibWave heightAir tempDewpointWater temp
2015-Mar-06 23:25N 38°60' W 076°23'2 1.6
2015-Mar-06 22:28N 39°01' W 076°22'6 4.4
2015-Mar-06 21:06N 39°07' W 076°24'4 6.1
2015-Mar-06 20:31N 39°10' W 076°26'6 6.4
2015-Mar-06 19:33N 39°13' W 076°33'2 2.0
2015-Mar-06 18:33N 39°12' W 076°35'2 1.8
2015-Mar-06 17:33N 39°14' W 076°33'4 3.7
2015-Mar-06 16:33N 39°17' W 076°36'0 0.0
2015-Mar-06 15:33N 39°17' W 076°36'0 0.0
2015-Mar-06 14:33N 39°17' W 076°36'0 0.0
2015-Mar-06 13:32N 39°17' W 076°36'0 0.0
2015-Mar-06 12:33N 39°17' W 076°36'0 0.0
2015-Mar-06 11:33N 39°17' W 076°36'0 0.0
2015-Mar-06 10:33N 39°17' W 076°36'0 0.0
2015-Mar-06 09:33N 39°17' W 076°36'0 0.0
2015-Mar-06 08:33N 39°17' W 076°36'0 0.0
2015-Mar-06 07:33N 39°17' W 076°36'0 0.0
2015-Mar-06 06:33N 39°17' W 076°36'0 0.0
2015-Mar-06 05:33N 39°17' W 076°36'0 0.0
2015-Mar-06 04:34N 39°17' W 076°36'0 0.0
2015-Mar-06 03:33N 39°17' W 076°36'0 0.0
2015-Mar-06 02:33N 39°17' W 076°36'0 0.0
2015-Mar-06 01:33N 39°17' W 076°36'0 0.0
2015-Mar-06 00:33N 39°17' W 076°36'0 0.0
2015-Mar-05 23:33N 39°17' W 076°36'0 0.0
2015-Mar-05 22:33N 39°17' W 076°36'4 4.5
2015-Mar-05 21:33N 39°12' W 076°35'0 0.1
2015-Mar-05 20:33N 39°12' W 076°35'0 0.0
2015-Mar-05 19:33N 39°12' W 076°35'0 0.0
2015-Mar-05 18:33N 39°12' W 076°35'0 0.0
2015-Mar-05 17:33N 39°12' W 076°35'0 0.0
2015-Mar-05 16:33N 39°12' W 076°35'0 0.0
2015-Mar-05 15:33N 39°12' W 076°35'0 0.0
2015-Mar-05 14:33N 39°12' W 076°35'0 0.0
2015-Mar-05 13:33N 39°12' W 076°35'0 0.0
2015-Mar-05 12:33N 39°12' W 076°35'0 0.0
2015-Mar-05 11:30N 39°12' W 076°35'0 0.0
2015-Mar-05 09:33N 39°12' W 076°35'0 0.0
2015-Mar-05 08:33N 39°12' W 076°35'0 0.0
2015-Mar-05 07:33N 39°12' W 076°35'0 0.0
2015-Mar-05 06:33N 39°12' W 076°35'0 0.0
2015-Mar-05 05:33N 39°12' W 076°35'0 0.0
2015-Mar-05 04:33N 39°12' W 076°35'0 0.0
2015-Mar-05 03:33N 39°12' W 076°35'0 0.0
2015-Mar-05 02:33N 39°12' W 076°35'0 0.0
2015-Mar-05 01:33N 39°12' W 076°35'0 0.0
2015-Mar-05 00:33N 39°12' W 076°35'0 0.1
2015-Mar-04 23:33N 39°12' W 076°35'0 0.0
2015-Mar-04 22:33N 39°12' W 076°35'0 0.3
2015-Mar-04 21:33N 39°13' W 076°35'0 0.0
2015-Mar-04 20:33N 39°13' W 076°35'0 0.0
2015-Mar-04 19:33N 39°13' W 076°35'0 0.0
2015-Mar-04 18:33N 39°13' W 076°35'0 0.0
2015-Mar-04 17:33N 39°13' W 076°35'0 0.0
2015-Mar-04 16:33N 39°13' W 076°35'0 0.2
2015-Mar-04 15:33N 39°12' W 076°35'6 5.6
2015-Mar-04 14:33N 39°11' W 076°28'5 5.2
2015-Mar-04 13:33N 39°07' W 076°24'6 5.7
2015-Mar-04 12:33N 39°01' W 076°23'7 6.4
2015-Mar-04 11:26N 38°54' W 076°25'47 5.9
2015-Mar-04 03:22N 38°07' W 076°16'43 1.3
2015-Mar-02 17:18N 38°50' W 076°26'14 6.3
2015-Mar-02 15:07N 39°04' W 076°23'3 4.0
2015-Mar-02 14:16N 39°07' W 076°24'4 5.1
2015-Mar-02 13:27N 39°11' W 076°26'5 5.1
2015-Mar-02 12:33N 39°13' W 076°31'3 2.8
2015-Mar-02 11:33N 39°12' W 076°35'0 0.0
2015-Mar-02 10:33N 39°12' W 076°35'0 0.0
2015-Mar-02 09:33N 39°12' W 076°35'0 0.0
2015-Mar-02 08:33N 39°12' W 076°35'0 0.0
2015-Mar-02 07:33N 39°12' W 076°35'0 0.0
2015-Mar-02 06:33N 39°12' W 076°35'0 0.0
2015-Mar-02 05:33N 39°12' W 076°35'0 0.0
2015-Mar-02 04:33N 39°12' W 076°35'0 0.0
2015-Mar-02 03:33N 39°12' W 076°35'0 0.0
2015-Mar-02 02:32N 39°12' W 076°35'0 0.0
2015-Mar-02 01:33N 39°12' W 076°35'0 0.0
2015-Mar-02 00:33N 39°12' W 076°35'0 0.0
2015-Mar-01 23:33N 39°12' W 076°35'0 0.0
2015-Mar-01 22:33N 39°12' W 076°35'0 0.0
2015-Mar-01 21:33N 39°12' W 076°35'0 0.0
2015-Mar-01 20:33N 39°12' W 076°35'0 0.0
2015-Mar-01 19:33N 39°12' W 076°35'0 0.0
2015-Mar-01 18:33N 39°12' W 076°35'0 0.0
2015-Mar-01 17:33N 39°12' W 076°35'0 0.0
2015-Mar-01 16:33N 39°12' W 076°35'0 0.0
2015-Mar-01 15:33N 39°12' W 076°35'0 0.0
2015-Mar-01 14:33N 39°12' W 076°35'0 0.0
2015-Mar-01 13:33N 39°12' W 076°35'0 0.0
2015-Mar-01 12:33N 39°12' W 076°35'0 0.0
2015-Mar-01 11:33N 39°12' W 076°35'0 0.0
2015-Mar-01 10:33N 39°12' W 076°35'0 0.0
2015-Mar-01 09:33N 39°12' W 076°35'0 0.0
2015-Mar-01 08:33N 39°12' W 076°35'0 0.0
2015-Mar-01 07:33N 39°12' W 076°35'0 0.0
2015-Mar-01 06:33N 39°12' W 076°35'0 0.0
2015-Mar-01 05:33N 39°12' W 076°35'0 0.0
2015-Mar-01 04:33N 39°12' W 076°35'0 0.0
2015-Mar-01 03:33N 39°12' W 076°35'0 0.0
2015-Mar-01 02:33N 39°12' W 076°35'0 0.0
2015-Mar-01 01:33N 39°12' W 076°35'0 0.0
2015-Mar-01 00:33N 39°12' W 076°35'0 0.0
2015-Feb-28 23:33N 39°12' W 076°35'0 0.0
2015-Feb-28 22:33N 39°12' W 076°35'0 0.0
2015-Feb-28 21:33N 39°12' W 076°35'0 0.0
2015-Feb-28 20:33N 39°12' W 076°35'0 0.0
2015-Feb-28 19:33N 39°12' W 076°35'0 0.0
2015-Feb-28 18:33N 39°12' W 076°35'1 1.4
2015-Feb-28 17:33N 39°13' W 076°34'7 6.4
2015-Feb-28 16:33N 39°11' W 076°26'1 0.6
2015-Feb-28 15:33N 39°11' W 076°27'6 6.2
2015-Feb-28 14:33N 39°13' W 076°34'1 1.1
2015-Feb-28 13:33N 39°12' W 076°35'0 0.1
2015-Feb-28 12:33N 39°12' W 076°35'0 0.1
2015-Feb-28 11:33N 39°12' W 076°35'0 0.0
2015-Feb-28 10:33N 39°12' W 076°35'0 0.0
2015-Feb-28 09:33N 39°12' W 076°35'0 0.0
2015-Feb-28 08:33N 39°12' W 076°35'0 0.0
2015-Feb-28 07:33N 39°12' W 076°35'0 0.0
2015-Feb-28 06:33N 39°12' W 076°35'0 0.0
2015-Feb-28 05:33N 39°12' W 076°35'0 0.0
2015-Feb-28 04:33N 39°12' W 076°35'0 0.0
2015-Feb-28 03:33N 39°12' W 076°35'0 0.0
2015-Feb-28 02:33N 39°12' W 076°35'0 0.0
2015-Feb-28 01:33N 39°12' W 076°35'0 0.0
2015-Feb-28 00:33N 39°12' W 076°35'0 0.0
2015-Feb-27 23:33N 39°12' W 076°35'0 0.0
2015-Feb-27 22:33N 39°12' W 076°35'0 0.0
2015-Feb-27 21:33N 39°12' W 076°35'0 0.0
2015-Feb-27 20:33N 39°12' W 076°35'0 0.1
2015-Feb-27 19:33N 39°12' W 076°35'0 0.0
2015-Feb-27 18:33N 39°12' W 076°35'0 0.1
2015-Feb-27 17:33N 39°12' W 076°35'0 0.0
2015-Feb-27 16:33N 39°12' W 076°35'0 0.0
2015-Feb-27 15:33N 39°12' W 076°35'0 0.0
2015-Feb-27 14:33N 39°12' W 076°35'0 0.0
2015-Feb-27 13:33N 39°12' W 076°35'0 0.0
2015-Feb-27 12:33N 39°12' W 076°35'0 0.0
2015-Feb-27 11:33N 39°12' W 076°35'0 0.0
2015-Feb-27 10:33N 39°12' W 076°35'0 0.0
2015-Feb-27 09:33N 39°12' W 076°35'0 0.0
2015-Feb-27 08:33N 39°12' W 076°35'0 0.0
2015-Feb-27 07:33N 39°12' W 076°35'0 0.0
2015-Feb-27 06:33N 39°12' W 076°35'0 0.0
2015-Feb-27 05:33N 39°12' W 076°35'0 0.0
2015-Feb-27 04:33N 39°12' W 076°35'0 0.0
2015-Feb-27 03:33N 39°12' W 076°35'0 0.0
2015-Feb-27 02:33N 39°12' W 076°35'0 0.0
2015-Feb-27 01:33N 39°12' W 076°35'0 0.0
2015-Feb-27 00:33N 39°12' W 076°35'0 0.0
2015-Feb-26 23:33N 39°12' W 076°35'0 0.0
2015-Feb-26 22:33N 39°12' W 076°35'0 0.0
2015-Feb-26 21:33N 39°12' W 076°35'1 0.6
2015-Feb-26 20:33N 39°13' W 076°35'4 4.1
2015-Feb-26 19:33N 39°17' W 076°36'0 0.0
2015-Feb-26 18:33N 39°17' W 076°36'0 0.0
2015-Feb-26 17:33N 39°17' W 076°36'0 0.0
2015-Feb-26 16:33N 39°17' W 076°36'0 0.0
2015-Feb-26 15:33N 39°17' W 076°36'0 0.0
2015-Feb-26 14:33N 39°17' W 076°36'0 0.0
2015-Feb-26 13:33N 39°17' W 076°36'0 0.0
2015-Feb-26 12:33N 39°17' W 076°36'0 0.0
2015-Feb-26 11:33N 39°17' W 076°36'0 0.0
2015-Feb-26 10:33N 39°17' W 076°36'0 0.0
2015-Feb-26 09:33N 39°17' W 076°36'0 0.0
2015-Feb-26 08:33N 39°17' W 076°36'0 0.0
2015-Feb-26 07:33N 39°17' W 076°36'0 0.0
2015-Feb-26 06:33N 39°17' W 076°36'0 0.0
2015-Feb-26 05:33N 39°17' W 076°36'0 0.0
2015-Feb-26 04:33N 39°17' W 076°36'0 0.0
2015-Feb-26 03:33N 39°17' W 076°36'0 0.0
2015-Feb-26 02:33N 39°17' W 076°36'0 0.0
2015-Feb-26 01:33N 39°17' W 076°36'0 0.0
2015-Feb-26 00:33N 39°17' W 076°36'0 0.0
2015-Feb-25 23:33N 39°17' W 076°36'4 4.5
2015-Feb-25 22:33N 39°12' W 076°35'0 0.2
2015-Feb-25 21:33N 39°12' W 076°35'0 0.1
2015-Feb-25 20:33N 39°12' W 076°35'0 0.1
2015-Feb-25 19:33N 39°12' W 076°35'0 0.0
2015-Feb-25 18:33N 39°12' W 076°35'0 0.0
2015-Feb-25 17:33N 39°12' W 076°35'0 0.0
2015-Feb-25 16:33N 39°12' W 076°35'0 0.0
2015-Feb-25 15:33N 39°12' W 076°35'0 0.0
2015-Feb-25 14:33N 39°12' W 076°35'0 0.0
2015-Feb-25 13:33N 39°12' W 076°35'0 0.0
2015-Feb-25 12:33N 39°12' W 076°35'0 0.0
2015-Feb-25 11:33N 39°12' W 076°35'0 0.0
2015-Feb-25 10:33N 39°12' W 076°35'0 0.0
2015-Feb-25 09:33N 39°12' W 076°35'0 0.0
2015-Feb-25 08:33N 39°12' W 076°35'0 0.0
2015-Feb-25 07:33N 39°12' W 076°35'0 0.0
2015-Feb-25 06:33N 39°12' W 076°35'0 0.0
2015-Feb-25 05:33N 39°12' W 076°35'0 0.0
2015-Feb-25 04:33N 39°12' W 076°35'0 0.0
2015-Feb-25 03:33N 39°12' W 076°35'0 0.0
2015-Feb-25 02:33N 39°12' W 076°35'0 0.0
2015-Feb-25 01:33N 39°12' W 076°35'0 0.0
2015-Feb-25 00:33N 39°12' W 076°35'0 0.0
2015-Feb-24 23:33N 39°12' W 076°35'  
Track history (hours):
 
Tides and Currents Weather Stations Pressure Air Temp Water Temp Dewpoint Dewpoint Depression Visibility Wind Speed Wind Dir Waves Ship Positions

Island Lookout

Owner: Stevens Towing Company Inc., Yonges Island, SC. More information available from US FCC via Universal Licensing System and Coast Guard Vessel Documentation Center.

Last reported at 2015-Mar-06 23:25 UTC. Time now 2015-Mar-07 00:14 UTC.
Position N 38°60' W 076°23'.

Length 22 m; draft 2.9 m.

Type: Towing. MMSI: 367472930.

Date/timePositionNaut miles runAvg speedWind from/ knotsBaromVisibWave heightAir tempDewpointWater temp
2015-Mar-06 23:25N 38°60' W 076°23'2 1.6
2015-Mar-06 22:28N 39°01' W 076°22'6 4.4
2015-Mar-06 21:06N 39°07' W 076°24'4 6.1
2015-Mar-06 20:31N 39°10' W 076°26'6 6.4
2015-Mar-06 19:33N 39°13' W 076°33'2 2.0
2015-Mar-06 18:33N 39°12' W 076°35'2 1.8
2015-Mar-06 17:33N 39°14' W 076°33'4 3.7
2015-Mar-06 16:33N 39°17' W 076°36'0 0.0
2015-Mar-06 15:33N 39°17' W 076°36'0 0.0
2015-Mar-06 14:33N 39°17' W 076°36'0 0.0
2015-Mar-06 13:32N 39°17' W 076°36'0 0.0
2015-Mar-06 12:33N 39°17' W 076°36'0 0.0
2015-Mar-06 11:33N 39°17' W 076°36'0 0.0
2015-Mar-06 10:33N 39°17' W 076°36'0 0.0
2015-Mar-06 09:33N 39°17' W 076°36'0 0.0
2015-Mar-06 08:33N 39°17' W 076°36'0 0.0
2015-Mar-06 07:33N 39°17' W 076°36'0 0.0
2015-Mar-06 06:33N 39°17' W 076°36'0 0.0
2015-Mar-06 05:33N 39°17' W 076°36'0 0.0
2015-Mar-06 04:34N 39°17' W 076°36'0 0.0
2015-Mar-06 03:33N 39°17' W 076°36'0 0.0
2015-Mar-06 02:33N 39°17' W 076°36'0 0.0
2015-Mar-06 01:33N 39°17' W 076°36'0 0.0
2015-Mar-06 00:33N 39°17' W 076°36'0 0.0
2015-Mar-05 23:33N 39°17' W 076°36'0 0.0
2015-Mar-05 22:33N 39°17' W 076°36'4 4.5
2015-Mar-05 21:33N 39°12' W 076°35'0 0.1
2015-Mar-05 20:33N 39°12' W 076°35'0 0.0
2015-Mar-05 19:33N 39°12' W 076°35'0 0.0
2015-Mar-05 18:33N 39°12' W 076°35'0 0.0
2015-Mar-05 17:33N 39°12' W 076°35'0 0.0
2015-Mar-05 16:33N 39°12' W 076°35'0 0.0
2015-Mar-05 15:33N 39°12' W 076°35'0 0.0
2015-Mar-05 14:33N 39°12' W 076°35'0 0.0
2015-Mar-05 13:33N 39°12' W 076°35'0 0.0
2015-Mar-05 12:33N 39°12' W 076°35'0 0.0
2015-Mar-05 11:30N 39°12' W 076°35'0 0.0
2015-Mar-05 09:33N 39°12' W 076°35'0 0.0
2015-Mar-05 08:33N 39°12' W 076°35'0 0.0
2015-Mar-05 07:33N 39°12' W 076°35'0 0.0
2015-Mar-05 06:33N 39°12' W 076°35'0 0.0
2015-Mar-05 05:33N 39°12' W 076°35'0 0.0
2015-Mar-05 04:33N 39°12' W 076°35'0 0.0
2015-Mar-05 03:33N 39°12' W 076°35'0 0.0
2015-Mar-05 02:33N 39°12' W 076°35'0 0.0
2015-Mar-05 01:33N 39°12' W 076°35'0 0.0
2015-Mar-05 00:33N 39°12' W 076°35'0 0.1
2015-Mar-04 23:33N 39°12' W 076°35'0 0.0
2015-Mar-04 22:33N 39°12' W 076°35'0 0.3
2015-Mar-04 21:33N 39°13' W 076°35'0 0.0
2015-Mar-04 20:33N 39°13' W 076°35'0 0.0
2015-Mar-04 19:33N 39°13' W 076°35'0 0.0
2015-Mar-04 18:33N 39°13' W 076°35'0 0.0
2015-Mar-04 17:33N 39°13' W 076°35'0 0.0
2015-Mar-04 16:33N 39°13' W 076°35'0 0.2
2015-Mar-04 15:33N 39°12' W 076°35'6 5.6
2015-Mar-04 14:33N 39°11' W 076°28'5 5.2
2015-Mar-04 13:33N 39°07' W 076°24'6 5.7
2015-Mar-04 12:33N 39°01' W 076°23'7 6.4
2015-Mar-04 11:26N 38°54' W 076°25'47 5.9
2015-Mar-04 03:22N 38°07' W 076°16'43 1.3
2015-Mar-02 17:18N 38°50' W 076°26'14 6.3
2015-Mar-02 15:07N 39°04' W 076°23'3 4.0
2015-Mar-02 14:16N 39°07' W 076°24'4 5.1
2015-Mar-02 13:27N 39°11' W 076°26'5 5.1
2015-Mar-02 12:33N 39°13' W 076°31'3 2.8
2015-Mar-02 11:33N 39°12' W 076°35'0 0.0
2015-Mar-02 10:33N 39°12' W 076°35'0 0.0
2015-Mar-02 09:33N 39°12' W 076°35'0 0.0
2015-Mar-02 08:33N 39°12' W 076°35'0 0.0
2015-Mar-02 07:33N 39°12' W 076°35'0 0.0
2015-Mar-02 06:33N 39°12' W 076°35'0 0.0
2015-Mar-02 05:33N 39°12' W 076°35'0 0.0
2015-Mar-02 04:33N 39°12' W 076°35'0 0.0
2015-Mar-02 03:33N 39°12' W 076°35'0 0.0
2015-Mar-02 02:32N 39°12' W 076°35'0 0.0
2015-Mar-02 01:33N 39°12' W 076°35'0 0.0
2015-Mar-02 00:33N 39°12' W 076°35'0 0.0
2015-Mar-01 23:33N 39°12' W 076°35'0 0.0
2015-Mar-01 22:33N 39°12' W 076°35'0 0.0
2015-Mar-01 21:33N 39°12' W 076°35'0 0.0
2015-Mar-01 20:33N 39°12' W 076°35'0 0.0
2015-Mar-01 19:33N 39°12' W 076°35'0 0.0
2015-Mar-01 18:33N 39°12' W 076°35'0 0.0
2015-Mar-01 17:33N 39°12' W 076°35'0 0.0
2015-Mar-01 16:33N 39°12' W 076°35'0 0.0
2015-Mar-01 15:33N 39°12' W 076°35'0 0.0
2015-Mar-01 14:33N 39°12' W 076°35'0 0.0
2015-Mar-01 13:33N 39°12' W 076°35'0 0.0
2015-Mar-01 12:33N 39°12' W 076°35'0 0.0
2015-Mar-01 11:33N 39°12' W 076°35'0 0.0
2015-Mar-01 10:33N 39°12' W 076°35'0 0.0
2015-Mar-01 09:33N 39°12' W 076°35'0 0.0
2015-Mar-01 08:33N 39°12' W 076°35'0 0.0
2015-Mar-01 07:33N 39°12' W 076°35'0 0.0
2015-Mar-01 06:33N 39°12' W 076°35'0 0.0
2015-Mar-01 05:33N 39°12' W 076°35'0 0.0
2015-Mar-01 04:33N 39°12' W 076°35'0 0.0
2015-Mar-01 03:33N 39°12' W 076°35'0 0.0
2015-Mar-01 02:33N 39°12' W 076°35'0 0.0
2015-Mar-01 01:33N 39°12' W 076°35'0 0.0
2015-Mar-01 00:33N 39°12' W 076°35'0 0.0
2015-Feb-28 23:33N 39°12' W 076°35'0 0.0
2015-Feb-28 22:33N 39°12' W 076°35'0 0.0
2015-Feb-28 21:33N 39°12' W 076°35'0 0.0
2015-Feb-28 20:33N 39°12' W 076°35'0 0.0
2015-Feb-28 19:33N 39°12' W 076°35'0 0.0
2015-Feb-28 18:33N 39°12' W 076°35'1 1.4
2015-Feb-28 17:33N 39°13' W 076°34'7 6.4
2015-Feb-28 16:33N 39°11' W 076°26'1 0.6
2015-Feb-28 15:33N 39°11' W 076°27'6 6.2
2015-Feb-28 14:33N 39°13' W 076°34'1 1.1
2015-Feb-28 13:33N 39°12' W 076°35'0 0.1
2015-Feb-28 12:33N 39°12' W 076°35'0 0.1
2015-Feb-28 11:33N 39°12' W 076°35'0 0.0
2015-Feb-28 10:33N 39°12' W 076°35'0 0.0
2015-Feb-28 09:33N 39°12' W 076°35'0 0.0
2015-Feb-28 08:33N 39°12' W 076°35'0 0.0
2015-Feb-28 07:33N 39°12' W 076°35'0 0.0
2015-Feb-28 06:33N 39°12' W 076°35'0 0.0
2015-Feb-28 05:33N 39°12' W 076°35'0 0.0
2015-Feb-28 04:33N 39°12' W 076°35'0 0.0
2015-Feb-28 03:33N 39°12' W 076°35'0 0.0
2015-Feb-28 02:33N 39°12' W 076°35'0 0.0
2015-Feb-28 01:33N 39°12' W 076°35'0 0.0
2015-Feb-28 00:33N 39°12' W 076°35'0 0.0
2015-Feb-27 23:33N 39°12' W 076°35'0 0.0
2015-Feb-27 22:33N 39°12' W 076°35'0 0.0
2015-Feb-27 21:33N 39°12' W 076°35'0 0.0
2015-Feb-27 20:33N 39°12' W 076°35'0 0.1
2015-Feb-27 19:33N 39°12' W 076°35'0 0.0
2015-Feb-27 18:33N 39°12' W 076°35'0 0.1
2015-Feb-27 17:33N 39°12' W 076°35'0 0.0
2015-Feb-27 16:33N 39°12' W 076°35'0 0.0
2015-Feb-27 15:33N 39°12' W 076°35'0 0.0
2015-Feb-27 14:33N 39°12' W 076°35'0 0.0
2015-Feb-27 13:33N 39°12' W 076°35'0 0.0
2015-Feb-27 12:33N 39°12' W 076°35'0 0.0
2015-Feb-27 11:33N 39°12' W 076°35'0 0.0
2015-Feb-27 10:33N 39°12' W 076°35'0 0.0
2015-Feb-27 09:33N 39°12' W 076°35'0 0.0
2015-Feb-27 08:33N 39°12' W 076°35'0 0.0
2015-Feb-27 07:33N 39°12' W 076°35'0 0.0
2015-Feb-27 06:33N 39°12' W 076°35'0 0.0
2015-Feb-27 05:33N 39°12' W 076°35'0 0.0
2015-Feb-27 04:33N 39°12' W 076°35'0 0.0
2015-Feb-27 03:33N 39°12' W 076°35'0 0.0
2015-Feb-27 02:33N 39°12' W 076°35'0 0.0
2015-Feb-27 01:33N 39°12' W 076°35'0 0.0
2015-Feb-27 00:33N 39°12' W 076°35'0 0.0
2015-Feb-26 23:33N 39°12' W 076°35'0 0.0
2015-Feb-26 22:33N 39°12' W 076°35'0 0.0
2015-Feb-26 21:33N 39°12' W 076°35'1 0.6
2015-Feb-26 20:33N 39°13' W 076°35'4 4.1
2015-Feb-26 19:33N 39°17' W 076°36'0 0.0
2015-Feb-26 18:33N 39°17' W 076°36'0 0.0
2015-Feb-26 17:33N 39°17' W 076°36'0 0.0
2015-Feb-26 16:33N 39°17' W 076°36'0 0.0
2015-Feb-26 15:33N 39°17' W 076°36'0 0.0
2015-Feb-26 14:33N 39°17' W 076°36'0 0.0
2015-Feb-26 13:33N 39°17' W 076°36'0 0.0
2015-Feb-26 12:33N 39°17' W 076°36'0 0.0
2015-Feb-26 11:33N 39°17' W 076°36'0 0.0
2015-Feb-26 10:33N 39°17' W 076°36'0 0.0
2015-Feb-26 09:33N 39°17' W 076°36'0 0.0
2015-Feb-26 08:33N 39°17' W 076°36'0 0.0
2015-Feb-26 07:33N 39°17' W 076°36'0 0.0
2015-Feb-26 06:33N 39°17' W 076°36'0 0.0
2015-Feb-26 05:33N 39°17' W 076°36'0 0.0
2015-Feb-26 04:33N 39°17' W 076°36'0 0.0
2015-Feb-26 03:33N 39°17' W 076°36'0 0.0
2015-Feb-26 02:33N 39°17' W 076°36'0 0.0
2015-Feb-26 01:33N 39°17' W 076°36'0 0.0
2015-Feb-26 00:33N 39°17' W 076°36'0 0.0
2015-Feb-25 23:33N 39°17' W 076°36'4 4.5
2015-Feb-25 22:33N 39°12' W 076°35'0 0.2
2015-Feb-25 21:33N 39°12' W 076°35'0 0.1
2015-Feb-25 20:33N 39°12' W 076°35'0 0.1
2015-Feb-25 19:33N 39°12' W 076°35'0 0.0
2015-Feb-25 18:33N 39°12' W 076°35'0 0.0
2015-Feb-25 17:33N 39°12' W 076°35'0 0.0
2015-Feb-25 16:33N 39°12' W 076°35'0 0.0
2015-Feb-25 15:33N 39°12' W 076°35'0 0.0
2015-Feb-25 14:33N 39°12' W 076°35'0 0.0
2015-Feb-25 13:33N 39°12' W 076°35'0 0.0
2015-Feb-25 12:33N 39°12' W 076°35'0 0.0
2015-Feb-25 11:33N 39°12' W 076°35'0 0.0
2015-Feb-25 10:33N 39°12' W 076°35'0 0.0
2015-Feb-25 09:33N 39°12' W 076°35'0 0.0
2015-Feb-25 08:33N 39°12' W 076°35'0 0.0
2015-Feb-25 07:33N 39°12' W 076°35'0 0.0
2015-Feb-25 06:33N 39°12' W 076°35'0 0.0
2015-Feb-25 05:33N 39°12' W 076°35'0 0.0
2015-Feb-25 04:33N 39°12' W 076°35'0 0.0
2015-Feb-25 03:33N 39°12' W 076°35'0 0.0
2015-Feb-25 02:33N 39°12' W 076°35'0 0.0
2015-Feb-25 01:33N 39°12' W 076°35'0 0.0
2015-Feb-25 00:33N 39°12' W 076°35'0 0.0
2015-Feb-24 23:33N 39°12' W 076°35'  

Dump ship's entire track history